sim
Sign-in with your pilot id or email,
or register
Callsign
Passwort

Schedule Details

Flight Number: DLH2550 (2)
Departure: Munich Airport (EDDM) at 09:45
Arrival: Lviv Danylo Halytskyi International Airport (UKLL) at 11:20
Route: Lufthansa Passenger Schedule. Enter filed route here before submitting Pirep.

Weather Information
Getting current METAR information for EDDM 201620Z 04004KT CAVOK 21/11 Q1015 NOSIG
Getting current METAR information for UKLL 201630Z 08003MPS CAVOK 17/07 Q1021 R13/CLRD// NOSIG

Schedule Frequency

Route Map